aviador You're here:

KFRR Decoded Metar

in
Report Time2018-06-21 21:35:00
UTC Time2018-06-21 21:51:52
Flight Rules vfr VFR
Wind010° at 04 kt
W.Decomp.*RWY 10: 4 kt LCW
W.Rank010° ranks 19
Current wind is below 010° avg. (4.5)
Visibility9999 m
Phenomena:N/A
Clouds:Broken 050 Hf
Expected CloudBase > 1,600 ft AGL from Temp-Dew spread
Ceiling5,000 ft
Temp25°C
Dew Point21°C (79% RH)
QNH1009 hPa
Raw Report
METAR KFRR 212135Z AUTO 01004KT 10SM BKN050 25/21 A2980 RMK AO1=

Extra information for KFRR:More info

Social comments